Atmospheric History
08/29/2012 09:17  to  8/30/2012 09:17
Change End Date:
To complete the export process:
1) Select all of the data below
2) Copy the data to the clipboard
3) Open a word processor such as Notepad
4) Paste the data into the word processor
5) Save the file

Date/Time (MDT), AirTemp, RH, Dewpoint ,AvgWindSpeed, GustWindSpeed, WindDirection, PrecipType, PrecipIntensity, PrecipAccumulation, PrecipRate
08/30/2012 09:15, 56, 41 , 33 ,6, 9, E, None, None , ,  
08/30/2012 09:08, 56, 41 , 33 ,4, 7, E, None, None , ,  
08/30/2012 09:05, 57, 41 , 33 ,6, 7, SE, None, None , ,  
08/30/2012 08:55, 55, 44 , 34 ,3, 4, E, None, None , ,  
08/30/2012 08:50, 54, 48 , 35 ,2, 2, E, None, None , ,  
08/30/2012 08:45, 53, 50 , 36 ,1, 1, SE, None, None , ,  
08/30/2012 08:35, 53, 50 , 35 ,0, 0, SE, None, None , ,  
08/30/2012 08:35, 53, 49 , 35 ,0, 0, SE, None, None , ,  
08/30/2012 08:25, 50, 52 , 33 ,0, 0, NE, None, None , ,  
08/30/2012 08:21, 50, 53 , 33 ,0, 0, NE, None, None , ,  
08/30/2012 08:15, 49, 54 , 33 ,0, 0, SW, None, None , ,  
08/30/2012 08:05, 46, 57 , 32 ,0, 0, W, None, None , ,  
08/30/2012 08:03, 46, 57 , 32 ,0, 0, W, None, None , ,  
08/30/2012 07:55, 45, 59 , 32 ,0, 0, W, None, None , ,  
08/30/2012 07:50, 44, 60 , 31 ,0, 0, W, None, None , ,  
08/30/2012 07:45, 44, 61 , 31 ,0, 0, W, None, None , ,  
08/30/2012 07:35, 43, 62 , 31 ,0, 0, W, None, None , ,  
08/30/2012 07:25, 42, 62 , 31 ,0, 1, W, None, None , ,  
08/30/2012 07:20, 41, 64 , 30 ,1, 1, W, None, None , ,  
08/30/2012 07:15, 41, 65 , 30 ,0, 1, SW, None, None , ,  
08/30/2012 07:05, 41, 65 , 30 ,1, 1, SW, None, None , ,  
08/30/2012 06:55, 41, 64 , 30 ,0, 0, W, None, None , ,  
08/30/2012 06:50, 41, 65 , 30 ,0, 0, W, None, None , ,  
08/30/2012 06:45, 41, 64 , 30 ,0, 0, W, None, None , ,  
08/30/2012 06:34, 41, 63 , 30 ,0, 1, W, None, None , ,  
08/30/2012 06:32, 41, 63 , 30 ,0, 1, W, None, None , ,  
08/30/2012 06:24, 41, 64 , 30 ,1, 1, SW, None, None , ,  
08/30/2012 06:21, 42, 63 , 30 ,1, 1, SW, None, None , ,  
08/30/2012 06:14, 43, 61 , 30 ,1, 1, S, None, None , ,  
08/30/2012 06:09, 42, 62 , 30 ,1, 2, W, None, None , ,  
08/30/2012 06:04, 42, 62 , 30 ,0, 2, N, None, None , ,  
08/30/2012 05:54, 44, 59 , 31 ,1, 5, N, None, None , ,  
08/30/2012 05:44, 46, 56 , 31 ,1, 4, W, None, None , ,  
08/30/2012 05:39, 47, 53 , 31 ,2, 6, NW, None, None , ,  
08/30/2012 05:34, 48, 49 , 30 ,4, 6, W, None, None , ,  
08/30/2012 05:24, 48, 51 , 31 ,4, 6, W, None, None , ,  
08/30/2012 05:21, 48, 50 , 30 ,3, 7, W, None, None , ,  
08/30/2012 05:14, 47, 51 , 30 ,5, 7, W, None, None , ,  
08/30/2012 05:09, 47, 52 , 30 ,4, 5, W, None, None , ,  
08/30/2012 05:04, 47, 56 , 33 ,2, 4, NW, None, None , ,  
08/30/2012 04:54, 48, 50 , 31 ,4, 8, W, None, None , ,  
08/30/2012 04:51, 48, 50 , 31 ,4, 8, W, None, None , ,  
08/30/2012 04:44, 48, 50 , 31 ,6, 9, W, None, None , ,  
08/30/2012 04:39, 48, 49 , 31 ,5, 7, W, None, None , ,  
08/30/2012 04:34, 48, 49 , 30 ,6, 7, W, None, None , ,  
08/30/2012 04:24, 47, 51 , 30 ,4, 6, NW, None, None , ,  
08/30/2012 04:21, 47, 51 , 30 ,4, 6, NW, None, None , ,  
08/30/2012 04:14, 46, 54 , 31 ,3, 4, NW, None, None , ,  
08/30/2012 04:09, 47, 52 , 31 ,2, 4, NW, None, None , ,  
08/30/2012 04:04, 48, 51 , 31 ,2, 6, W, None, None , ,  
08/30/2012 03:54, 47, 52 , 30 ,4, 6, W, None, None , ,  
08/30/2012 03:51, 47, 53 , 31 ,2, 4, NW, None, None , ,  
08/30/2012 03:44, 46, 54 , 31 ,3, 4, W, None, None , ,  
08/30/2012 03:39, 46, 54 , 31 ,2, 6, W, None, None , ,  
08/30/2012 03:34, 46, 55 , 31 ,3, 6, W, None, None , ,  
08/30/2012 03:24, 46, 54 , 30 ,1, 3, NW, None, None , ,  
08/30/2012 03:21, 46, 54 , 30 ,2, 3, W, None, None , ,  
08/30/2012 03:14, 45, 58 , 31 ,1, 1, W, None, None , ,  
08/30/2012 03:10, 45, 59 , 32 ,0, 1, E, None, None , ,  
08/30/2012 03:04, 46, 59 , 33 ,1, 2, NE, None, None , ,  
08/30/2012 02:53, 48, 52 , 31 ,2, 4, NW, None, None , ,  
08/30/2012 02:51, 48, 50 , 31 ,2, 4, W, None, None , ,  
08/30/2012 02:43, 49, 49 , 31 ,2, 4, W, None, None , ,  
08/30/2012 02:33, 49, 48 , 31 ,2, 6, NW, None, None , ,  
08/30/2012 02:23, 50, 48 , 31 ,5, 9, W, None, None , ,  
08/30/2012 02:21, 49, 47 , 31 ,6, 9, W, None, None , ,  
08/30/2012 02:13, 49, 49 , 31 ,4, 6, W, None, None , ,  
08/30/2012 02:09, 49, 48 , 31 ,4, 5, W, None, None , ,  
08/30/2012 02:03, 50, 49 , 31 ,2, 4, W, None, None , ,  
08/30/2012 01:53, 50, 48 , 31 ,3, 6, W, None, None , ,  
08/30/2012 01:52, 50, 48 , 31 ,3, 5, W, None, None , ,  
08/30/2012 01:43, 51, 47 , 31 ,3, 7, W, None, None , ,  
08/30/2012 01:39, 51, 47 , 31 ,4, 5, W, None, None , ,  
08/30/2012 01:33, 51, 47 , 32 ,3, 6, SW, None, None , ,  
08/30/2012 01:23, 52, 46 , 32 ,4, 10, SW, None, None , ,  
08/30/2012 01:22, 52, 46 , 31 ,4, 10, W, None, None , ,  
08/30/2012 01:13, 52, 46 , 32 ,6, 10, W, None, None , ,  
08/30/2012 01:09, 52, 45 , 32 ,6, 11, W, None, None , ,  
08/30/2012 01:03, 52, 45 , 32 ,7, 11, W, None, None , ,  
08/30/2012 00:53, 52, 46 , 32 ,6, 9, W, None, None , ,  
08/30/2012 00:51, 52, 46 , 32 ,6, 9, W, None, None , ,  
08/30/2012 00:43, 52, 45 , 32 ,6, 11, W, None, None , ,  
08/30/2012 00:39, 52, 45 , 32 ,7, 11, W, None, None , ,  
08/30/2012 00:33, 52, 45 , 32 ,6, 9, W, None, None , ,  
08/30/2012 00:23, 52, 45 , 32 ,6, 10, W, None, None , ,  
08/30/2012 00:13, 53, 44 , 32 ,5, 10, W, None, None , ,  
08/30/2012 00:03, 53, 44 , 32 ,6, 11, W, None, None , ,  
08/29/2012 23:53, 53, 44 , 32 ,6, 11, W, None, None , ,  
08/29/2012 23:43, 53, 44 , 32 ,6, 11, W, None, None , ,  
08/29/2012 23:33, 54, 44 , 33 ,7, 14, W, None, None , ,  
08/29/2012 23:28, 54, 43 , 32 ,7, 14, W, None, None , ,  
08/29/2012 23:22, 54, 43 , 32 ,7, 13, W, None, None , ,  
08/29/2012 23:12, 54, 43 , 33 ,6, 13, W, None, None , ,  
08/29/2012 23:02, 55, 42 , 33 ,6, 13, SW, None, None , ,  
08/29/2012 22:52, 55, 41 , 32 ,7, 13, W, None, None , ,  
08/29/2012 22:42, 55, 42 , 32 ,9, 14, SW, None, None , ,  
08/29/2012 22:32, 55, 42 , 33 ,6, 10, W, None, None , ,  
08/29/2012 22:22, 55, 42 , 33 ,6, 11, W, None, None , ,  
08/29/2012 22:21, 55, 41 , 33 ,7, 11, W, None, None , ,  
08/29/2012 22:12, 55, 41 , 33 ,6, 9, W, None, None , ,  
08/29/2012 22:02, 55, 41 , 32 ,4, 9, W, None, None , ,  
08/29/2012 21:52, 56, 40 , 32 ,7, 9, W, None, None , ,  
08/29/2012 21:51, 56, 40 , 32 ,7, 9, W, None, None , ,  
08/29/2012 21:42, 56, 39 , 32 ,2, 7, W, None, None , ,  
08/29/2012 21:39, 56, 38 , 32 ,4, 7, W, None, None , ,  
08/29/2012 21:32, 57, 38 , 32 ,4, 9, W, None, None , ,  
08/29/2012 21:22, 57, 38 , 31 ,5, 8, W, None, None , ,  
08/29/2012 21:21, 57, 37 , 31 ,4, 7, W, None, None , ,  
08/29/2012 21:12, 58, 36 , 31 ,4, 9, W, None, None , ,  
08/29/2012 21:09, 58, 36 , 32 ,4, 9, NW, None, None , ,  
08/29/2012 21:02, 59, 35 , 31 ,6, 11, W, None, None , ,  
08/29/2012 20:52, 59, 34 , 31 ,7, 9, W, None, None , ,  
08/29/2012 20:42, 59, 35 , 32 ,4, 7, W, None, None , ,  
08/29/2012 20:35, 60, 34 , 32 ,3, 7, W, None, None , ,  
08/29/2012 20:32, 60, 34 , 32 ,2, 7, W, None, None , ,  
08/29/2012 20:22, 61, 33 , 32 ,6, 11, W, None, None , ,  
08/29/2012 20:21, 61, 33 , 32 ,6, 11, W, None, None , ,  
08/29/2012 20:12, 62, 31 , 32 ,6, 10, W, None, None , ,  
08/29/2012 20:02, 63, 30 , 32 ,6, 11, W, None, None , ,  
08/29/2012 20:02, 64, 30 , 32 ,6, 11, W, None, None , ,  
08/29/2012 19:52, 65, 27 , 31 ,7, 13, W, None, None , ,  
08/29/2012 19:41, 66, 26 , 31 ,7, 11, W, None, None , ,  
08/29/2012 19:34, 67, 25 , 30 ,7, 12, W, None, None , ,  
08/29/2012 19:31, 67, 25 , 30 ,7, 10, NW, None, None , ,  
08/29/2012 19:21, 68, 24 , 30 ,5, 8, W, None, None , ,  
08/29/2012 19:21, 68, 24 , 30 ,5, 8, W, None, None , ,  
08/29/2012 19:11, 68, 24 , 30 ,3, 11, SW, None, None , ,  
08/29/2012 19:01, 69, 23 , 30 ,9, 13, W, None, None , ,  
08/29/2012 18:51, 69, 23 , 30 ,9, 13, W, None, None , ,  
08/29/2012 18:51, 69, 23 , 30 ,9, 14, W, None, None , ,  
08/29/2012 18:41, 70, 22 , 29 ,8, 14, W, None, None , ,  
08/29/2012 18:33, 71, 20 , 28 ,8, 13, NW, None, None , ,  
08/29/2012 18:31, 71, 19 , 28 ,5, 12, NW, None, None , ,  
08/29/2012 18:21, 71, 19 , 27 ,7, 16, NW, None, None , ,  
08/29/2012 18:11, 71, 18 , 27 ,7, 15, W, None, None , ,  
08/29/2012 18:08, 72, 18 , 27 ,9, 15, NW, None, None , ,  
08/29/2012 18:01, 72, 18 , 27 ,9, 15, NW, None, None , ,  
08/29/2012 17:51, 72, 18 , 26 ,7, 17, NW, None, None , ,  
08/29/2012 17:41, 72, 17 , 25 ,11, 17, NW, None, None , ,  
08/29/2012 17:31, 73, 17 , 26 ,11, 19, NW, None, None , ,  
08/29/2012 17:21, 73, 16 , 26 ,10, 16, W, None, None , ,  
08/29/2012 17:11, 73, 16 , 25 ,11, 19, NW, None, None , ,  
08/29/2012 17:01, 73, 16 , 25 ,9, 19, NW, None, None , ,  
08/29/2012 16:51, 73, 16 , 24 ,9, 20, NW, None, None , ,  
08/29/2012 16:51, 73, 15 , 24 ,9, 20, NW, None, None , ,  
08/29/2012 16:41, 74, 15 , 24 ,11, 22, NW, None, None , ,  
08/29/2012 16:39, 74, 15 , 24 ,9, 22, NW, None, None , ,  
08/29/2012 16:31, 73, 15 , 24 ,13, 20, NW, None, None , ,  
08/29/2012 16:21, 73, 15 , 23 ,9, 15, NW, None, None , ,  
08/29/2012 16:10, 73, 15 , 24 ,8, 21, W, None, None , ,  
08/29/2012 16:05, 73, 15 , 24 ,11, 17, W, None, None , ,  
08/29/2012 16:00, 74, 15 , 24 ,7, 17, N, None, None , ,  
08/29/2012 15:52, 74, 15 , 24 ,7, 16, NW, None, None , ,  
08/29/2012 15:50, 74, 15 , 24 ,8, 17, NW, None, None , ,  
08/29/2012 15:40, 74, 15 , 24 ,9, 21, N, None, None , ,  
08/29/2012 15:34, 73, 15 , 24 ,13, 22, NW, None, None , ,  
08/29/2012 15:30, 73, 15 , 24 ,14, 20, N, None, None , ,  
08/29/2012 15:20, 73, 15 , 23 ,6, 16, NW, None, None , ,  
08/29/2012 15:20, 73, 15 , 23 ,6, 16, NW, None, None , ,  
08/29/2012 15:10, 74, 14 , 24 ,4, 17, NW, None, None , ,  
08/29/2012 15:08, 74, 15 , 24 ,4, 17, NW, None, None , ,  
08/29/2012 15:00, 73, 15 , 24 ,8, 16, N, None, None , ,  
08/29/2012 14:51, 73, 16 , 24 ,9, 16, NW, None, None , ,  
08/29/2012 14:50, 73, 16 , 25 ,9, 13, NW, None, None , ,  
08/29/2012 14:40, 73, 16 , 25 ,10, 17, NW, None, None , ,  
08/29/2012 14:30, 71, 17 , 26 ,6, 16, W, None, None , ,  
08/29/2012 14:20, 71, 18 , 26 ,7, 14, W, None, None , ,  
08/29/2012 14:10, 71, 18 , 26 ,6, 16, NW, Yes, , ,  
08/29/2012 14:04, 70, 19 , 27 ,9, 17, W, None, None , ,  
08/29/2012 14:00, 71, 18 , 26 ,9, 17, N, None, None , ,  
08/29/2012 13:51, 71, 18 , 27 ,4, 19, N, Yes, , ,  
08/29/2012 13:50, 71, 18 , 26 ,6, 19, N, None, None , ,  
08/29/2012 13:40, 69, 21 , 28 ,11, 19, NW, None, None , ,  
08/29/2012 13:35, 68, 21 , 27 ,9, 17, W, None, None , ,  
08/29/2012 13:30, 69, 21 , 28 ,7, 21, W, None, None , ,  
08/29/2012 13:21, 69, 22 , 29 ,10, 19, NW, None, None , ,  
08/29/2012 13:20, 68, 22 , 28 ,9, 19, N, None, None , ,  
08/29/2012 13:10, 68, 24 , 30 ,10, 19, W, None, None , ,  
08/29/2012 13:00, 67, 24 , 30 ,10, 19, W, None, None , ,  
08/29/2012 12:51, 67, 27 , 32 ,9, 13, W, None, None , ,  
08/29/2012 12:50, 67, 27 , 32 ,7, 13, W, None, None , ,  
08/29/2012 12:40, 66, 28 , 32 ,5, 14, W, None, None , ,  
08/29/2012 12:37, 66, 27 , 31 ,6, 14, NW, None, None , ,  
08/29/2012 12:29, 65, 30 , 33 ,11, 15, W, None, None , ,  
08/29/2012 12:21, 65, 33 , 36 ,7, 13, NW, None, None , ,  
08/29/2012 12:19, 65, 33 , 36 ,7, 14, NW, None, None , ,  
08/29/2012 12:09, 64, 34 , 35 ,7, 15, NW, None, None , ,  
08/29/2012 12:08, 64, 35 , 36 ,9, 15, NW, None, None , ,  
08/29/2012 11:59, 63, 36 , 36 ,7, 13, W, None, None , ,  
08/29/2012 11:51, 62, 37 , 36 ,7, 14, W, Yes, , ,  
08/29/2012 11:49, 62, 38 , 36 ,9, 14, W, None, None , ,  
08/29/2012 11:39, 62, 37 , 36 ,9, 14, NW, None, None , ,  
08/29/2012 11:36, 61, 38 , 36 ,9, 14, W, Yes, , ,  
08/29/2012 11:29, 62, 36 , 35 ,6, 12, NW, None, None , ,  
08/29/2012 11:21, 61, 39 , 36 ,8, 12, W, None, None , ,  
08/29/2012 11:19, 60, 40 , 37 ,7, 12, W, None, None , ,  
08/29/2012 11:09, 60, 42 , 37 ,7, 14, W, Yes, , ,  
08/29/2012 11:04, 59, 43 , 37 ,9, 14, W, None, None , ,  
08/29/2012 10:59, 59, 43 , 37 ,9, 12, W, Yes, , ,  
08/29/2012 10:51, 59, 43 , 37 ,7, 12, NW, None, None , ,  
08/29/2012 10:49, 59, 44 , 37 ,8, 12, W, None, None , ,  
08/29/2012 10:39, 58, 43 , 36 ,9, 12, W, None, None , ,  
08/29/2012 10:35, 59, 41 , 35 ,7, 12, W, None, None , ,  
08/29/2012 10:29, 58, 43 , 36 ,7, 12, W, None, None , ,  
08/29/2012 10:21, 57, 45 , 36 ,10, 14, W, None, None , ,  
08/29/2012 10:19, 56, 46 , 37 ,11, 14, W, None, None , ,  
08/29/2012 10:09, 56, 45 , 36 ,10, 13, W, None, None , ,  
08/29/2012 10:03, 56, 45 , 35 ,9, 14, W, None, None , ,  
08/29/2012 09:59, 56, 43 , 35 ,7, 14, NW, None, None , ,  
08/29/2012 09:51, 57, 42 , 34 ,6, 12, W, None, None , ,  
08/29/2012 09:49, 56, 43 , 35 ,9, 12, W, None, None , ,  
08/29/2012 09:39, 56, 44 , 35 ,8, 13, W, None, None , ,  
08/29/2012 09:33, 56, 44 , 35 ,7, 11, W, None, None , ,  
08/29/2012 09:29, 56, 43 , 35 ,6, 11, W, None, None , ,  
08/29/2012 09:21, 56, 43 , 34 ,6, 12, W, None, None , ,  
08/29/2012 09:19, 56, 43 , 34 ,7, 12, SW, None, None , ,  
Change End Date:
Copyright © 1998-2005 Surface Systems, Inc.
All Rights Reserved
Send comments about the data to:
SCAN Web ® is a registered trademark of Surface Systems, Inc.
SCAN Web Version 5.6